Data Viewer
| City | State | Eastern Time | Source | Temp | DewPt | RH | BP | 5 Min Precip | Wind Speed | Wind Dir | 5 Min Wind Max | 5 Min Wind Max Dir |
|---|---|---|---|---|---|---|---|---|---|---|---|---|
| Pemberton | NJ | 2026-05-09 01:30 | NJDOT | 55 | 46 | 69 | 4 | |||||
| Pemberton | NJ | 2026-05-09 17:35 | NJDOT | 64 | 53 | 67 | 8 | |||||
| Pemberton | NJ | 2026-05-09 16:30 | NJDOT | 68 | 53 | 65 | 8 | |||||
| Pemberton | NJ | 2026-05-09 16:35 | NJDOT | 68 | 53 | 65 | 9 | |||||
| Pemberton | NJ | 2026-05-09 16:40 | NJDOT | 68 | 53 | 66 | 9 | |||||
| Pemberton | NJ | 2026-05-09 16:45 | NJDOT | 68 | 53 | 67 | 8 | |||||
| Pemberton | NJ | 2026-05-09 16:50 | NJDOT | 66 | 54 | 66 | 6 | |||||
| Pemberton | NJ | 2026-05-09 17:00 | NJDOT | 65 | 53 | 65 | 7 | |||||
| Pemberton | NJ | 2026-05-09 17:05 | NJDOT | 65 | 53 | 66 | 8 | |||||
| Pemberton | NJ | 2026-05-09 17:10 | NJDOT | 65 | 53 | 66 | 8 | |||||
| Pemberton | NJ | 2026-05-09 17:15 | NJDOT | 64 | 53 | 66 | 7 | |||||
| Pemberton | NJ | 2026-05-09 17:20 | NJDOT | 64 | 53 | 66 | 7 | |||||
| Pemberton | NJ | 2026-05-09 17:25 | NJDOT | 65 | 53 | 66 | 6 | |||||
| Pemberton | NJ | 2026-05-09 17:30 | NJDOT | 65 | 53 | 66 | 6 | |||||
| Pemberton | NJ | 2026-05-09 17:40 | NJDOT | 64 | 53 | 67 | 8 | |||||
| Pemberton | NJ | 2026-05-09 16:20 | NJDOT | 68 | 53 | 66 | 9 | |||||
| Pemberton | NJ | 2026-05-09 17:45 | NJDOT | 64 | 53 | 68 | 8 | |||||
| Pemberton | NJ | 2026-05-09 17:50 | NJDOT | 63 | 53 | 69 | 8 | |||||
| Pemberton | NJ | 2026-05-09 18:00 | NJDOT | 63 | 53 | 71 | 8 | |||||
| Pemberton | NJ | 2026-05-09 18:05 | NJDOT | 62 | 53 | 71 | 7 | |||||
| Pemberton | NJ | 2026-05-09 18:10 | NJDOT | 62 | 53 | 72 | 9 | |||||
| Pemberton | NJ | 2026-05-09 18:15 | NJDOT | 62 | 53 | 73 | 9 | |||||
| Pemberton | NJ | 2026-05-09 18:20 | NJDOT | 62 | 54 | 75 | 5 | |||||
| Pemberton | NJ | 2026-05-09 18:25 | NJDOT | 61 | 54 | 77 | 8 | |||||
| Pemberton | NJ | 2026-05-09 18:30 | NJDOT | 61 | 55 | 79 | 8 | |||||
| Pemberton | NJ | 2026-05-09 18:40 | NJDOT | 60 | 55 | 82 | 6 | |||||
| Pemberton | NJ | 2026-05-09 19:00 | NJDOT | 60 | 56 | 87 | 5 | |||||
| Pemberton | NJ | 2026-05-09 19:05 | NJDOT | 60 | 56 | 87 | 5 | |||||
| Pemberton | NJ | 2026-05-09 19:10 | NJDOT | 59 | 56 | 88 | 4 | |||||
| Pemberton | NJ | 2026-05-09 16:25 | NJDOT | 68 | 53 | 66 | 8 | |||||
| Pemberton | NJ | 2026-05-09 16:15 | NJDOT | 68 | 53 | 66 | 9 | |||||
| Pemberton | NJ | 2026-05-09 19:20 | NJDOT | 59 | 56 | 90 | 3 | |||||
| Pemberton | NJ | 2026-05-09 14:45 | NJDOT | 70 | 51 | 55 | 11 | |||||
| Pemberton | NJ | 2026-05-09 13:35 | NJDOT | 71 | 50 | 47 | 17 | |||||
| Pemberton | NJ | 2026-05-09 13:40 | NJDOT | 72 | 50 | 46 | 15 | |||||
| Pemberton | NJ | 2026-05-09 13:45 | NJDOT | 73 | 51 | 45 | 17 | |||||
| Pemberton | NJ | 2026-05-09 13:50 | NJDOT | 73 | 51 | 45 | 17 | |||||
| Pemberton | NJ | 2026-05-09 14:00 | NJDOT | 75 | 51 | 44 | 16 | |||||
| Pemberton | NJ | 2026-05-09 14:05 | NJDOT | 74 | 51 | 43 | 16 | |||||
| Pemberton | NJ | 2026-05-09 14:10 | NJDOT | 74 | 50 | 42 | 13 | |||||
| Pemberton | NJ | 2026-05-09 14:15 | NJDOT | 73 | 50 | 43 | 14 | |||||
| Pemberton | NJ | 2026-05-09 14:20 | NJDOT | 73 | 49 | 42 | 17 | |||||
| Pemberton | NJ | 2026-05-09 14:25 | NJDOT | 73 | 49 | 42 | 17 | |||||
| Pemberton | NJ | 2026-05-09 14:30 | NJDOT | 73 | 49 | 43 | 16 | |||||
| Pemberton | NJ | 2026-05-09 14:35 | NJDOT | 70 | 49 | 49 | 16 | |||||
| Pemberton | NJ | 2026-05-09 14:40 | NJDOT | 70 | 50 | 53 | 12 | |||||
| Pemberton | NJ | 2026-05-09 14:50 | NJDOT | 69 | 51 | 56 | 9 | |||||
| Pemberton | NJ | 2026-05-09 16:10 | NJDOT | 68 | 53 | 66 | 5 | |||||
| Pemberton | NJ | 2026-05-09 15:00 | NJDOT | 69 | 50 | 57 | 10 | |||||
| Pemberton | NJ | 2026-05-09 15:05 | NJDOT | 69 | 51 | 58 | 10 | |||||
| Pemberton | NJ | 2026-05-09 15:10 | NJDOT | 69 | 51 | 59 | 9 | |||||
| Pemberton | NJ | 2026-05-09 15:15 | NJDOT | 69 | 51 | 61 | 9 | |||||
| Pemberton | NJ | 2026-05-09 15:20 | NJDOT | 69 | 52 | 61 | 9 | |||||
| Pemberton | NJ | 2026-05-09 15:25 | NJDOT | 69 | 52 | 61 | 8 | |||||
| Pemberton | NJ | 2026-05-09 15:30 | NJDOT | 69 | 52 | 62 | 12 | |||||
| Pemberton | NJ | 2026-05-09 15:35 | NJDOT | 69 | 51 | 62 | 12 | |||||
| Pemberton | NJ | 2026-05-09 15:40 | NJDOT | 69 | 52 | 62 | 10 | |||||
| Pemberton | NJ | 2026-05-09 15:45 | NJDOT | 69 | 52 | 61 | 10 | |||||
| Pemberton | NJ | 2026-05-09 15:50 | NJDOT | 68 | 52 | 61 | 6 | |||||
| Pemberton | NJ | 2026-05-09 16:00 | NJDOT | 68 | 52 | 64 | 7 | |||||
| Pemberton | NJ | 2026-05-09 16:05 | NJDOT | 68 | 53 | 66 | 6 | |||||
| Pemberton | NJ | 2026-05-09 19:15 | NJDOT | 59 | 56 | 89 | 4 | |||||
| Pemberton | NJ | 2026-05-09 19:25 | NJDOT | 59 | 56 | 90 | 3 | |||||
| Pemberton | NJ | 2026-05-09 13:25 | NJDOT | 71 | 50 | 47 | 16 | |||||
| Pemberton | NJ | 2026-05-09 23:40 | NJDOT | 50 | 50 | 99 | 1 | |||||
| Pemberton | NJ | 2026-05-09 22:35 | NJDOT | 51 | 51 | 99 | 1 | |||||
| Pemberton | NJ | 2026-05-09 22:40 | NJDOT | 51 | 51 | 99 | 2 | |||||
| Pemberton | NJ | 2026-05-09 22:45 | NJDOT | 51 | 51 | 99 | 2 | |||||
| Pemberton | NJ | 2026-05-09 22:50 | NJDOT | 51 | 51 | 99 | 1 | |||||
| Pemberton | NJ | 2026-05-09 23:00 | NJDOT | 50 | 50 | 99 | 0 | |||||
| Pemberton | NJ | 2026-05-09 23:05 | NJDOT | 51 | 51 | 99 | 0 | |||||
| Pemberton | NJ | 2026-05-09 23:10 | NJDOT | 51 | 51 | 99 | 1 | |||||
| Pemberton | NJ | 2026-05-09 23:15 | NJDOT | 50 | 50 | 99 | 1 | |||||
| Pemberton | NJ | 2026-05-09 23:20 | NJDOT | 50 | 50 | 99 | 1 | |||||
| Pemberton | NJ | 2026-05-09 23:25 | NJDOT | 50 | 50 | 99 | 1 | |||||
| Pemberton | NJ | 2026-05-09 23:30 | NJDOT | 50 | 50 | 99 | 1 | |||||
| Pemberton | NJ | 2026-05-09 23:35 | NJDOT | 50 | 50 | 99 | 1 | |||||
| Pemberton | NJ | 2026-05-09 23:45 | NJDOT | 50 | 50 | 99 | 2 | |||||
| Pemberton | NJ | 2026-05-09 22:25 | NJDOT | 51 | 51 | 99 | 2 | |||||
| Pemberton | NJ | 2026-05-09 23:50 | NJDOT | 50 | 50 | 99 | 2 | |||||
| Pemberton | NJ | 2026-05-10 00:00 | NJDOT | 50 | 50 | 99 | 0 | |||||
| Pemberton | NJ | 2026-05-10 00:05 | NJDOT | 50 | 50 | 99 | 0 | |||||
| Pemberton | NJ | 2026-05-10 00:10 | NJDOT | 50 | 50 | 99 | 0 | |||||
| Pemberton | NJ | 2026-05-10 00:15 | NJDOT | 50 | 50 | 99 | 0 | |||||
| Pemberton | NJ | 2026-05-10 00:20 | NJDOT | 50 | 50 | 99 | 0 | |||||
| Pemberton | NJ | 2026-05-10 00:25 | NJDOT | 49 | 49 | 99 | 0 | |||||
| Pemberton | NJ | 2026-05-10 00:35 | NJDOT | 49 | 49 | 99 | 0 | |||||
| Pemberton | NJ | 2026-05-10 01:00 | NJDOT | 49 | 49 | 99 | 0 | |||||
| Pemberton | NJ | 2026-05-10 01:05 | NJDOT | 49 | 49 | 99 | 0 | |||||
| Pemberton | NJ | 2026-05-10 01:10 | NJDOT | 49 | 49 | 99 | 0 | |||||
| Pemberton | NJ | 2026-05-10 01:15 | NJDOT | 49 | 49 | 99 | 0 | |||||
| Pemberton | NJ | 2026-05-10 01:20 | NJDOT | 48 | 48 | 99 | 0 | |||||
| Pemberton | NJ | 2026-05-09 22:30 | NJDOT | 51 | 51 | 99 | 1 | |||||
| Pemberton | NJ | 2026-05-09 22:20 | NJDOT | 51 | 51 | 99 | 2 | |||||
| Pemberton | NJ | 2026-05-09 19:30 | NJDOT | 59 | 56 | 90 | 4 | |||||
| Pemberton | NJ | 2026-05-09 20:45 | NJDOT | 55 | 55 | 99 | 0 | |||||
| Pemberton | NJ | 2026-05-09 19:35 | NJDOT | 59 | 56 | 91 | 3 | |||||
| Pemberton | NJ | 2026-05-09 19:40 | NJDOT | 58 | 56 | 91 | 3 | |||||
| Pemberton | NJ | 2026-05-09 19:45 | NJDOT | 58 | 56 | 92 | 1 | |||||
| Pemberton | NJ | 2026-05-09 19:50 | NJDOT | 58 | 56 | 92 | 1 | |||||
| Pemberton | NJ | 2026-05-09 20:00 | NJDOT | 57 | 56 | 94 | 0 | |||||
| Pemberton | NJ | 2026-05-09 20:05 | NJDOT | 57 | 56 | 95 | 1 | |||||
| Pemberton | NJ | 2026-05-09 20:10 | NJDOT | 57 | 56 | 96 | 1 | |||||
| Pemberton | NJ | 2026-05-09 20:15 | NJDOT | 56 | 55 | 96 | 1 | |||||
| Pemberton | NJ | 2026-05-09 20:20 | NJDOT | 56 | 55 | 97 | 0 | |||||
| Pemberton | NJ | 2026-05-09 20:25 | NJDOT | 56 | 55 | 98 | 0 | |||||
| Pemberton | NJ | 2026-05-09 20:30 | NJDOT | 55 | 55 | 99 | 0 | |||||
| Pemberton | NJ | 2026-05-09 20:35 | NJDOT | 55 | 55 | 99 | 0 | |||||
| Pemberton | NJ | 2026-05-09 20:40 | NJDOT | 55 | 55 | 99 | 0 | |||||
| Pemberton | NJ | 2026-05-09 20:50 | NJDOT | 54 | 54 | 99 | 0 | |||||
| Pemberton | NJ | 2026-05-09 22:15 | NJDOT | 51 | 51 | 99 | 1 | |||||
| Pemberton | NJ | 2026-05-09 20:55 | NJDOT | 54 | 54 | 99 | 0 | |||||
| Pemberton | NJ | 2026-05-09 21:10 | NJDOT | 53 | 53 | 99 | 0 | |||||
| Pemberton | NJ | 2026-05-09 21:15 | NJDOT | 53 | 53 | 99 | 0 | |||||
| Pemberton | NJ | 2026-05-09 21:20 | NJDOT | 53 | 53 | 99 | 0 | |||||
| Pemberton | NJ | 2026-05-09 21:25 | NJDOT | 53 | 53 | 99 | 0 | |||||
| Pemberton | NJ | 2026-05-09 21:30 | NJDOT | 53 | 53 | 99 | 0 | |||||
| Pemberton | NJ | 2026-05-09 21:35 | NJDOT | 53 | 53 | 99 | 0 | |||||
| Pemberton | NJ | 2026-05-09 21:40 | NJDOT | 52 | 52 | 99 | 0 | |||||
| Pemberton | NJ | 2026-05-09 21:45 | NJDOT | 52 | 52 | 99 | 0 | |||||
| Pemberton | NJ | 2026-05-09 21:50 | NJDOT | 52 | 52 | 99 | 0 | |||||
| Pemberton | NJ | 2026-05-09 22:00 | NJDOT | 52 | 52 | 99 | 0 | |||||
| Pemberton | NJ | 2026-05-09 22:05 | NJDOT | 51 | 51 | 99 | 0 | |||||
| Pemberton | NJ | 2026-05-09 22:10 | NJDOT | 51 | 51 | 99 | 0 | |||||
| Pemberton | NJ | 2026-05-09 13:30 | NJDOT | 71 | 50 | 47 | 17 | |||||
| Pemberton | NJ | 2026-05-09 13:20 | NJDOT | 71 | 50 | 47 | 16 | |||||
| Pemberton | NJ | 2026-05-09 01:35 | NJDOT | 55 | 46 | 69 | 4 | |||||
| Pemberton | NJ | 2026-05-09 05:45 | NJDOT | 52 | 48 | 86 | 5 | |||||
| Pemberton | NJ | 2026-05-09 04:40 | NJDOT | 51 | 46 | 85 | 3 | |||||
| Pemberton | NJ | 2026-05-09 04:45 | NJDOT | 51 | 47 | 86 | 3 | |||||
| Pemberton | NJ | 2026-05-09 04:50 | NJDOT | 51 | 47 | 86 | 3 | |||||
| Pemberton | NJ | 2026-05-09 05:00 | NJDOT | 51 | 47 | 86 | 4 | |||||
| Pemberton | NJ | 2026-05-09 05:05 | NJDOT | 51 | 47 | 86 | 4 | |||||
| Pemberton | NJ | 2026-05-09 05:10 | NJDOT | 51 | 47 | 86 | 4 | |||||
| Pemberton | NJ | 2026-05-09 05:15 | NJDOT | 51 | 48 | 86 | 4 | |||||
| Pemberton | NJ | 2026-05-09 05:20 | NJDOT | 51 | 48 | 86 | 4 | |||||
| Pemberton | NJ | 2026-05-09 05:25 | NJDOT | 52 | 48 | 86 | 4 | |||||
| Pemberton | NJ | 2026-05-09 05:30 | NJDOT | 52 | 48 | 86 | 5 | |||||
| Pemberton | NJ | 2026-05-09 05:35 | NJDOT | 52 | 48 | 86 | 5 | |||||
| Pemberton | NJ | 2026-05-09 05:40 | NJDOT | 52 | 48 | 86 | 5 | |||||
| Pemberton | NJ | 2026-05-09 05:50 | NJDOT | 52 | 48 | 86 | 6 | |||||
| Pemberton | NJ | 2026-05-09 04:30 | NJDOT | 51 | 47 | 83 | 3 | |||||
| Pemberton | NJ | 2026-05-09 06:00 | NJDOT | 52 | 49 | 86 | 4 | |||||
| Pemberton | NJ | 2026-05-09 06:05 | NJDOT | 53 | 49 | 86 | 5 | |||||
| Pemberton | NJ | 2026-05-09 06:10 | NJDOT | 53 | 49 | 86 | 5 | |||||
| Pemberton | NJ | 2026-05-09 06:15 | NJDOT | 53 | 49 | 86 | 4 | |||||
| Pemberton | NJ | 2026-05-09 06:20 | NJDOT | 53 | 49 | 86 | 4 | |||||
| Pemberton | NJ | 2026-05-09 06:25 | NJDOT | 53 | 49 | 86 | 4 | |||||
| Pemberton | NJ | 2026-05-09 06:30 | NJDOT | 53 | 49 | 87 | 5 | |||||
| Pemberton | NJ | 2026-05-09 06:35 | NJDOT | 53 | 49 | 87 | 5 | |||||
| Pemberton | NJ | 2026-05-09 06:40 | NJDOT | 53 | 50 | 87 | 4 | |||||
| Pemberton | NJ | 2026-05-09 06:45 | NJDOT | 53 | 50 | 87 | 4 | |||||
| Pemberton | NJ | 2026-05-09 07:00 | NJDOT | 54 | 51 | 87 | 4 | |||||
| Pemberton | NJ | 2026-05-09 07:05 | NJDOT | 54 | 51 | 87 | 4 | |||||
| Pemberton | NJ | 2026-05-09 07:10 | NJDOT | 55 | 51 | 87 | 7 | |||||
| Pemberton | NJ | 2026-05-09 04:35 | NJDOT | 51 | 47 | 84 | 3 | |||||
| Pemberton | NJ | 2026-05-09 04:25 | NJDOT | 52 | 46 | 82 | 1 | |||||
| Pemberton | NJ | 2026-05-09 07:20 | NJDOT | 56 | 51 | 86 | 6 | |||||
| Pemberton | NJ | 2026-05-09 03:00 | NJDOT | 55 | 46 | 73 | 3 | |||||
| Pemberton | NJ | 2026-05-09 01:40 | NJDOT | 55 | 46 | 69 | 4 | |||||
| Pemberton | NJ | 2026-05-09 01:45 | NJDOT | 55 | 46 | 69 | 2 | |||||
| Pemberton | NJ | 2026-05-09 01:50 | NJDOT | 55 | 46 | 69 | 2 | |||||
| Pemberton | NJ | 2026-05-09 02:00 | NJDOT | 55 | 46 | 70 | 1 | |||||
| Pemberton | NJ | 2026-05-09 02:05 | NJDOT | 55 | 46 | 71 | 1 | |||||
| Pemberton | NJ | 2026-05-09 02:15 | NJDOT | 55 | 46 | 72 | 0 | |||||
| Pemberton | NJ | 2026-05-09 02:20 | NJDOT | 55 | 46 | 72 | 0 | |||||
| Pemberton | NJ | 2026-05-09 02:25 | NJDOT | 55 | 46 | 73 | 1 | |||||
| Pemberton | NJ | 2026-05-09 02:30 | NJDOT | 55 | 46 | 73 | 2 | |||||
| Pemberton | NJ | 2026-05-09 02:35 | NJDOT | 55 | 46 | 73 | 3 | |||||
| Pemberton | NJ | 2026-05-09 02:40 | NJDOT | 55 | 46 | 73 | 3 | |||||
| Pemberton | NJ | 2026-05-09 02:45 | NJDOT | 55 | 46 | 73 | 3 | |||||
| Pemberton | NJ | 2026-05-09 02:50 | NJDOT | 55 | 46 | 73 | 4 | |||||
| Pemberton | NJ | 2026-05-09 03:05 | NJDOT | 55 | 46 | 73 | 2 | |||||
| Pemberton | NJ | 2026-05-09 04:20 | NJDOT | 52 | 46 | 81 | 1 | |||||
| Pemberton | NJ | 2026-05-09 03:10 | NJDOT | 55 | 46 | 74 | 2 | |||||
| Pemberton | NJ | 2026-05-09 03:15 | NJDOT | 55 | 46 | 74 | 2 | |||||
| Pemberton | NJ | 2026-05-09 03:20 | NJDOT | 54 | 46 | 74 | 2 | |||||
| Pemberton | NJ | 2026-05-09 03:25 | NJDOT | 54 | 47 | 74 | 3 | |||||
| Pemberton | NJ | 2026-05-09 03:30 | NJDOT | 54 | 46 | 74 | 3 | |||||
| Pemberton | NJ | 2026-05-09 03:35 | NJDOT | 54 | 46 | 74 | 2 | |||||
| Pemberton | NJ | 2026-05-09 03:40 | NJDOT | 54 | 46 | 75 | 2 | |||||
| Pemberton | NJ | 2026-05-09 03:45 | NJDOT | 54 | 47 | 76 | 2 | |||||
| Pemberton | NJ | 2026-05-09 03:50 | NJDOT | 53 | 46 | 76 | 2 | |||||
| Pemberton | NJ | 2026-05-09 04:00 | NJDOT | 53 | 46 | 78 | 2 | |||||
| Pemberton | NJ | 2026-05-09 04:05 | NJDOT | 52 | 46 | 79 | 2 | |||||
| Pemberton | NJ | 2026-05-09 04:10 | NJDOT | 52 | 46 | 80 | 2 | |||||
| Pemberton | NJ | 2026-05-09 04:15 | NJDOT | 52 | 46 | 80 | 2 | |||||
| Pemberton | NJ | 2026-05-09 07:15 | NJDOT | 55 | 51 | 86 | 7 | |||||
| Pemberton | NJ | 2026-05-09 07:25 | NJDOT | 56 | 52 | 85 | 5 | |||||
| Pemberton | NJ | 2026-05-09 13:15 | NJDOT | 71 | 50 | 48 | 17 | |||||
| Pemberton | NJ | 2026-05-09 11:40 | NJDOT | 71 | 50 | 47 | 19 | |||||
| Pemberton | NJ | 2026-05-09 10:30 | NJDOT | 70 | 51 | 52 | 17 | |||||
| Pemberton | NJ | 2026-05-09 10:35 | NJDOT | 70 | 52 | 51 | 17 | |||||
| Pemberton | NJ | 2026-05-09 10:40 | NJDOT | 71 | 52 | 50 | 11 | |||||
| Pemberton | NJ | 2026-05-09 10:45 | NJDOT | 72 | 52 | 49 | 17 | |||||
| Pemberton | NJ | 2026-05-09 10:50 | NJDOT | 71 | 52 | 49 | 19 | |||||
| Pemberton | NJ | 2026-05-09 11:00 | NJDOT | 72 | 51 | 48 | 21 | |||||
| Pemberton | NJ | 2026-05-09 11:05 | NJDOT | 71 | 51 | 47 | 21 | |||||
| Pemberton | NJ | 2026-05-09 11:10 | NJDOT | 71 | 50 | 47 | 17 | |||||
| Pemberton | NJ | 2026-05-09 11:15 | NJDOT | 72 | 51 | 47 | 18 | |||||
| Pemberton | NJ | 2026-05-09 11:20 | NJDOT | 72 | 50 | 47 | 14 | |||||
| Pemberton | NJ | 2026-05-09 11:25 | NJDOT | 71 | 50 | 47 | 19 | |||||
| Pemberton | NJ | 2026-05-09 11:30 | NJDOT | 71 | 50 | 46 | 19 | |||||
| Pemberton | NJ | 2026-05-09 11:35 | NJDOT | 71 | 50 | 47 | 19 | |||||
| Pemberton | NJ | 2026-05-09 11:45 | NJDOT | 71 | 51 | 48 | 14 | |||||
| Pemberton | NJ | 2026-05-09 10:20 | NJDOT | 70 | 52 | 53 | 13 | |||||
| Pemberton | NJ | 2026-05-09 11:50 | NJDOT | 72 | 51 | 48 | 14 | |||||
| Pemberton | NJ | 2026-05-09 12:00 | NJDOT | 71 | 51 | 48 | 13 | |||||
| Pemberton | NJ | 2026-05-09 12:05 | NJDOT | 71 | 51 | 47 | 13 | |||||
| Pemberton | NJ | 2026-05-09 12:10 | NJDOT | 71 | 51 | 48 | 12 | |||||
| Pemberton | NJ | 2026-05-09 12:15 | NJDOT | 72 | 51 | 47 | 13 | |||||
| Pemberton | NJ | 2026-05-09 12:20 | NJDOT | 72 | 51 | 47 | 14 | |||||
| Pemberton | NJ | 2026-05-09 12:25 | NJDOT | 72 | 51 | 47 | 16 | |||||
| Pemberton | NJ | 2026-05-09 12:30 | NJDOT | 72 | 51 | 47 | 18 | |||||
| Pemberton | NJ | 2026-05-09 12:35 | NJDOT | 72 | 51 | 47 | 14 | |||||
| Pemberton | NJ | 2026-05-09 12:45 | NJDOT | 72 | 51 | 48 | 14 | |||||
| Pemberton | NJ | 2026-05-09 13:00 | NJDOT | 71 | 51 | 48 | 16 | |||||
| Pemberton | NJ | 2026-05-09 13:05 | NJDOT | 71 | 51 | 48 | 16 | |||||
| Pemberton | NJ | 2026-05-09 13:10 | NJDOT | 71 | 51 | 48 | 17 | |||||
| Pemberton | NJ | 2026-05-09 10:25 | NJDOT | 70 | 52 | 53 | 14 | |||||
| Pemberton | NJ | 2026-05-09 10:15 | NJDOT | 70 | 52 | 53 | 14 | |||||
| Pemberton | NJ | 2026-05-09 07:30 | NJDOT | 56 | 52 | 84 | 9 | |||||
| Pemberton | NJ | 2026-05-09 08:45 | NJDOT | 62 | 54 | 74 | 8 | |||||
| Pemberton | NJ | 2026-05-09 07:35 | NJDOT | 57 | 52 | 83 | 9 | |||||
| Pemberton | NJ | 2026-05-09 07:40 | NJDOT | 57 | 52 | 83 | 8 | |||||
| Pemberton | NJ | 2026-05-09 07:45 | NJDOT | 57 | 52 | 83 | 8 | |||||
| Pemberton | NJ | 2026-05-09 07:50 | NJDOT | 58 | 53 | 82 | 6 | |||||
| Pemberton | NJ | 2026-05-09 08:00 | NJDOT | 58 | 53 | 81 | 9 | |||||
| Pemberton | NJ | 2026-05-09 08:05 | NJDOT | 58 | 53 | 81 | 9 | |||||
| Pemberton | NJ | 2026-05-09 08:10 | NJDOT | 58 | 53 | 81 | 8 | |||||
| Pemberton | NJ | 2026-05-09 08:15 | NJDOT | 59 | 53 | 81 | 8 | |||||
| Pemberton | NJ | 2026-05-09 08:20 | NJDOT | 59 | 53 | 80 | 8 | |||||
| Pemberton | NJ | 2026-05-09 08:25 | NJDOT | 59 | 53 | 80 | 6 | |||||
| Pemberton | NJ | 2026-05-09 08:30 | NJDOT | 60 | 53 | 79 | 8 | |||||
| Pemberton | NJ | 2026-05-09 08:35 | NJDOT | 60 | 54 | 78 | 8 | |||||
| Pemberton | NJ | 2026-05-09 08:40 | NJDOT | 61 | 54 | 76 | 8 | |||||
| Pemberton | NJ | 2026-05-09 08:50 | NJDOT | 62 | 53 | 73 | 10 | |||||
| Pemberton | NJ | 2026-05-09 10:10 | NJDOT | 69 | 53 | 54 | 11 | |||||
| Pemberton | NJ | 2026-05-09 09:00 | NJDOT | 63 | 54 | 71 | 6 | |||||
| Pemberton | NJ | 2026-05-09 09:05 | NJDOT | 64 | 53 | 69 | 12 | |||||
| Pemberton | NJ | 2026-05-09 09:10 | NJDOT | 64 | 53 | 68 | 12 | |||||
| Pemberton | NJ | 2026-05-09 09:15 | NJDOT | 64 | 53 | 67 | 11 | |||||
| Pemberton | NJ | 2026-05-09 09:20 | NJDOT | 64 | 53 | 67 | 10 | |||||
| Pemberton | NJ | 2026-05-09 09:25 | NJDOT | 65 | 53 | 65 | 10 | |||||
| Pemberton | NJ | 2026-05-09 09:30 | NJDOT | 65 | 53 | 63 | 12 | |||||
| Pemberton | NJ | 2026-05-09 09:35 | NJDOT | 66 | 53 | 62 | 12 | |||||
| Pemberton | NJ | 2026-05-09 09:40 | NJDOT | 67 | 53 | 61 | 13 | |||||
| Pemberton | NJ | 2026-05-09 09:45 | NJDOT | 67 | 53 | 60 | 14 | |||||
| Pemberton | NJ | 2026-05-09 09:50 | NJDOT | 67 | 53 | 59 | 13 | |||||
| Pemberton | NJ | 2026-05-09 10:00 | NJDOT | 68 | 52 | 57 | 14 | |||||
| Pemberton | NJ | 2026-05-09 10:05 | NJDOT | 69 | 53 | 56 | 13 | |||||
| Pemberton | NJ | 2026-05-10 01:25 | NJDOT | 48 | 48 | 99 | 0 |
data collection created in 0.034884929656982 (queried in 0.009424) rendered in: 0.00035309791564941

